createdAt,value
2023-02-03T00:01:53.146Z,100908.16
2023-02-03T00:04:54.917Z,100920.34
2023-02-03T00:07:56.755Z,100928.03
2023-02-03T00:11:00.039Z,100934.69
2023-02-03T00:14:01.779Z,100931.66
2023-02-03T00:17:04.095Z,100934.56
2023-02-03T00:20:06.404Z,100930.97
2023-02-03T00:23:10.906Z,100927.22
2023-02-03T00:26:15.249Z,100938.09
2023-02-03T00:29:18.575Z,100943.38
2023-02-03T00:32:20.424Z,100948.53
2023-02-03T00:35:23.059Z,100956.09
2023-02-03T00:38:27.881Z,100962.66
2023-02-03T00:41:31.668Z,100965.13
2023-02-03T00:44:33.413Z,100977.69
2023-02-03T00:47:35.109Z,100973.06
2023-02-03T00:50:36.860Z,100973.84
2023-02-03T00:53:38.567Z,100976.91
2023-02-03T00:56:40.725Z,100985.53
2023-02-03T00:59:42.365Z,100988.84
2023-02-03T01:02:44.081Z,100996.94
2023-02-03T01:05:45.790Z,100992.34
2023-02-03T01:08:48.393Z,101015.81
2023-02-03T01:11:50.207Z,101014.78
2023-02-03T01:14:51.860Z,101009.38
2023-02-03T01:17:53.559Z,101010.03
2023-02-03T01:20:55.255Z,101005.94
2023-02-03T01:23:56.976Z,101007.06
2023-02-03T01:26:58.735Z,101007.34
2023-02-03T01:30:00.427Z,101007.09
2023-02-03T01:33:02.102Z,101009.66
2023-02-03T01:36:03.897Z,101016.31
2023-02-03T01:39:06.476Z,101027.72
2023-02-03T01:42:12.323Z,101020.44
2023-02-03T01:45:14.191Z,101029.28
2023-02-03T01:48:15.996Z,101029.91
2023-02-03T01:51:17.934Z,101028.47
2023-02-03T01:54:25.218Z,101029.28
2023-02-03T01:57:36.749Z,101037.84
2023-02-03T02:00:38.564Z,101047.72
2023-02-03T02:03:49.585Z,101040.28
2023-02-03T02:06:51.791Z,101054.66
2023-02-03T02:09:54.912Z,101056.44
2023-02-03T02:13:02.552Z,101052.72
2023-02-03T02:16:14.223Z,101054.25
2023-02-03T02:19:25.943Z,101051.19
2023-02-03T02:22:36.386Z,101040.00
2023-02-03T02:25:40.896Z,101042.81
2023-02-03T02:29:20.447Z,101062.69
2023-02-03T02:32:38.768Z,101065.62
2023-02-03T02:36:01.654Z,101061.50
2023-02-03T02:39:27.247Z,101065.81
2023-02-03T02:42:58.145Z,101063.22
2023-02-03T02:46:05.924Z,101060.63
2023-02-03T02:49:15.961Z,101060.91
2023-02-03T02:52:19.590Z,101055.19
2023-02-03T02:55:27.827Z,101059.75
2023-02-03T02:58:32.061Z,101067.31
2023-02-03T03:01:33.909Z,101072.16
2023-02-03T03:04:35.780Z,101065.44
2023-02-03T03:07:45.450Z,101072.84
2023-02-03T03:10:47.438Z,101083.44
2023-02-03T03:13:52.609Z,101074.59
2023-02-03T03:17:03.166Z,101064.56
2023-02-03T03:20:10.613Z,101072.09
2023-02-03T03:23:19.123Z,101067.59
2023-02-03T03:26:30.709Z,101075.91
2023-02-03T03:29:47.719Z,101072.56
2023-02-03T03:32:50.716Z,101081.03
2023-02-03T03:36:03.281Z,101078.19
2023-02-03T03:39:33.063Z,101077.97
2023-02-03T03:42:41.762Z,101079.19
2023-02-03T03:45:49.481Z,101067.94
2023-02-03T03:49:04.290Z,101076.88
2023-02-03T03:52:10.571Z,101075.47
2023-02-03T03:55:14.822Z,101080.19
2023-02-03T03:58:30.504Z,101087.56
2023-02-03T04:01:32.781Z,101086.50
2023-02-03T04:04:36.675Z,101090.44
2023-02-03T04:07:48.301Z,101089.12
2023-02-03T04:10:50.020Z,101087.31
2023-02-03T04:13:51.675Z,101090.63
2023-02-03T04:16:53.541Z,101087.31
2023-02-03T04:19:55.261Z,101084.97
2023-02-03T04:22:57.336Z,101084.41
2023-02-03T04:26:01.215Z,101077.06
2023-02-03T04:29:03.197Z,101074.34
2023-02-03T04:32:05.174Z,101080.56
2023-02-03T04:35:08.237Z,101090.94
2023-02-03T04:38:09.926Z,101085.38
2023-02-03T04:41:11.734Z,101097.25
2023-02-03T04:44:13.559Z,101102.84
2023-02-03T04:47:17.269Z,101106.75
2023-02-03T04:50:18.949Z,101103.56
2023-02-03T04:53:20.721Z,101115.72
2023-02-03T04:56:22.387Z,101116.62
2023-02-03T04:59:24.190Z,101121.75
2023-02-03T05:02:25.921Z,101128.97
2023-02-03T05:05:27.668Z,101130.47
2023-02-03T05:08:30.653Z,101130.03
2023-02-03T05:11:33.107Z,101115.94
2023-02-03T05:14:34.821Z,101124.97
2023-02-03T05:17:38.937Z,101123.16
2023-02-03T05:20:40.637Z,101109.81
2023-02-03T05:23:42.485Z,101111.75
2023-02-03T05:26:44.150Z,101110.56
2023-02-03T05:29:45.814Z,101109.81
2023-02-03T05:32:49.793Z,101117.78
2023-02-03T05:35:52.422Z,101114.22
2023-02-03T05:38:55.397Z,101104.50
2023-02-03T05:41:58.445Z,101104.22
2023-02-03T05:45:00.192Z,101110.59
2023-02-03T05:48:02.673Z,101104.47
2023-02-03T05:51:04.532Z,101109.13
2023-02-03T05:54:06.885Z,101101.66
2023-02-03T05:57:08.611Z,101101.63
2023-02-03T06:00:10.992Z,101099.19
2023-02-03T06:03:12.667Z,101107.47
2023-02-03T06:06:15.931Z,101097.81
2023-02-03T06:09:17.622Z,101106.94
2023-02-03T06:12:19.348Z,101098.66
2023-02-03T06:15:21.259Z,101105.84
2023-02-03T06:18:23.066Z,101104.78
2023-02-03T06:21:24.999Z,101099.50
2023-02-03T06:24:26.673Z,101104.75
2023-02-03T06:27:28.336Z,101102.03
2023-02-03T06:30:30.313Z,101098.63
2023-02-03T06:33:32.756Z,101102.13
2023-02-03T06:36:34.364Z,101092.53
2023-02-03T06:39:36.105Z,101092.34
2023-02-03T06:42:37.819Z,101095.66
2023-02-03T06:45:39.503Z,101101.94
2023-02-03T06:48:41.164Z,101111.59
2023-02-03T06:51:43.436Z,101127.97
2023-02-03T06:54:45.419Z,101128.13
2023-02-03T06:57:48.621Z,101144.12
2023-02-03T07:00:51.490Z,101149.22
2023-02-03T07:03:53.350Z,101152.19
2023-02-03T07:06:55.735Z,101154.16
2023-02-03T07:09:57.526Z,101148.81
2023-02-03T07:13:06.558Z,101151.72
2023-02-03T07:16:09.417Z,101151.31
2023-02-03T07:19:11.202Z,101148.09
2023-02-03T07:22:12.988Z,101156.53
2023-02-03T07:25:14.655Z,101147.31
2023-02-03T07:28:16.420Z,101146.75
2023-02-03T07:31:18.639Z,101142.91
2023-02-03T07:34:20.529Z,101137.00
2023-02-03T07:37:22.235Z,101133.44
2023-02-03T07:40:23.900Z,101132.63
2023-02-03T07:43:25.684Z,101139.84
2023-02-03T07:46:27.409Z,101135.75
2023-02-03T07:49:29.100Z,101129.25
2023-02-03T07:52:30.717Z,101131.19
2023-02-03T07:55:32.767Z,101135.56
2023-02-03T07:58:34.454Z,101129.41
2023-02-03T08:01:36.173Z,101128.94
2023-02-03T08:04:38.310Z,101132.81
2023-02-03T08:07:40.679Z,101134.84
2023-02-03T08:10:42.423Z,101128.44
2023-02-03T08:13:44.105Z,101121.37
2023-02-03T08:16:46.269Z,101132.16
2023-02-03T08:19:48.091Z,101140.88
2023-02-03T08:22:49.950Z,101133.03
2023-02-03T08:25:52.855Z,101137.97
2023-02-03T08:28:54.558Z,101137.66
2023-02-03T08:31:58.654Z,101147.75
2023-02-03T08:35:01.133Z,101153.06
2023-02-03T08:38:02.807Z,101161.78
2023-02-03T08:41:12.701Z,101163.69
2023-02-03T08:44:14.479Z,101174.38
2023-02-03T08:47:16.929Z,101178.50
2023-02-03T08:50:19.824Z,101184.66
2023-02-03T08:53:21.996Z,101181.44
2023-02-03T08:56:25.709Z,101182.84
2023-02-03T08:59:27.945Z,101173.88
2023-02-03T09:02:29.734Z,101172.97
2023-02-03T09:05:32.129Z,101178.88
2023-02-03T09:08:34.194Z,101173.78
2023-02-03T09:11:36.968Z,101158.81
2023-02-03T09:14:38.892Z,101168.22
2023-02-03T09:17:40.750Z,101159.72
2023-02-03T09:20:42.560Z,101156.00
2023-02-03T09:23:45.646Z,101150.12
2023-02-03T09:26:47.459Z,101125.75
2023-02-03T09:29:49.177Z,101123.62
2023-02-03T09:32:54.519Z,101122.75
2023-02-03T09:35:57.708Z,101115.94
2023-02-03T09:38:59.486Z,101117.97
2023-02-03T09:42:25.755Z,101121.87
2023-02-03T09:45:30.652Z,101105.88
2023-02-03T09:48:42.504Z,101109.97
2023-02-03T09:51:52.714Z,101105.53
2023-02-03T09:55:12.810Z,101100.06
2023-02-03T09:58:18.419Z,101085.66
2023-02-03T10:01:22.364Z,101087.38
2023-02-03T10:04:53.462Z,101087.66
2023-02-03T10:08:18.935Z,101093.41
2023-02-03T10:11:38.960Z,101088.66
2023-02-03T10:14:40.685Z,101089.62
2023-02-03T10:17:48.827Z,101084.59
2023-02-03T10:20:55.585Z,101085.25
2023-02-03T10:24:00.710Z,101077.53
2023-02-03T10:27:02.403Z,101069.38
2023-02-03T10:30:19.228Z,101065.62
2023-02-03T10:33:22.175Z,101065.19
2023-02-03T10:36:43.615Z,101065.16
2023-02-03T10:39:48.123Z,101068.59
2023-02-03T10:43:09.154Z,101065.81
2023-02-03T10:46:10.905Z,101063.00
2023-02-03T10:49:16.453Z,101057.84
2023-02-03T10:52:30.679Z,101049.28
2023-02-03T10:55:32.488Z,101042.09
2023-02-03T10:58:35.037Z,101053.13
2023-02-03T11:01:47.245Z,101047.47
2023-02-03T11:04:49.068Z,101032.75
2023-02-03T11:07:52.393Z,101028.50
2023-02-03T11:11:03.378Z,101030.44
2023-02-03T11:14:05.071Z,101015.03
2023-02-03T11:17:09.212Z,101012.09
2023-02-03T11:20:17.619Z,101014.25
2023-02-03T11:23:23.455Z,101016.06
2023-02-03T11:26:32.937Z,101007.47
2023-02-03T11:29:37.485Z,101004.00
2023-02-03T11:32:43.213Z,101001.97
2023-02-03T11:35:58.027Z,100988.00
2023-02-03T11:39:21.207Z,100973.22
2023-02-03T11:42:24.538Z,100966.19
2023-02-03T11:45:27.612Z,100963.44
2023-02-03T11:48:33.331Z,100953.47
2023-02-03T11:51:55.910Z,100946.63
2023-02-03T11:55:06.800Z,100936.88
2023-02-03T11:58:32.809Z,100931.63
2023-02-03T12:01:57.537Z,100908.37
2023-02-03T12:05:08.359Z,100903.50
2023-02-03T12:08:44.131Z,100895.53
2023-02-03T12:12:12.297Z,100877.31
2023-02-03T12:15:35.427Z,100870.22
2023-02-03T12:18:52.421Z,100860.25
2023-02-03T12:21:54.103Z,100850.44
2023-02-03T12:25:00.904Z,100838.97
2023-02-03T12:28:33.612Z,100826.56
2023-02-03T12:31:42.496Z,100813.72
2023-02-03T12:34:53.729Z,100820.22
2023-02-03T12:38:05.572Z,100805.56
2023-02-03T12:41:34.333Z,100797.66
2023-02-03T12:44:46.588Z,100775.53
2023-02-03T12:48:12.113Z,100772.28
2023-02-03T12:51:41.367Z,100767.41
2023-02-03T12:54:58.112Z,100747.88
2023-02-03T12:58:05.329Z,100739.00
2023-02-03T13:01:20.207Z,100720.03
2023-02-03T13:04:45.404Z,100712.97
2023-02-03T13:08:09.312Z,100707.63
2023-02-03T13:11:30.360Z,100690.72
2023-02-03T13:14:38.395Z,100680.75
2023-02-03T13:17:46.772Z,100669.12
2023-02-03T13:20:48.545Z,100659.00
2023-02-03T13:23:51.712Z,100652.41
2023-02-03T13:27:03.048Z,100641.44
2023-02-03T13:30:35.073Z,100637.22
2023-02-03T13:33:58.038Z,100622.81
2023-02-03T13:37:21.642Z,100621.44
2023-02-03T13:41:01.267Z,100614.28
2023-02-03T13:44:04.375Z,100598.12
2023-02-03T13:47:06.396Z,100589.16
2023-02-03T13:50:26.410Z,100581.84
2023-02-03T13:53:29.591Z,100568.66
2023-02-03T13:56:32.624Z,100560.50
2023-02-03T13:59:37.266Z,100556.47
2023-02-03T14:02:59.268Z,100558.28
2023-02-03T14:06:01.805Z,100544.19
2023-02-03T14:09:34.361Z,100535.19
2023-02-03T14:12:37.467Z,100523.16
2023-02-03T14:15:40.043Z,100524.34
2023-02-03T14:18:46.189Z,100518.63
2023-02-03T14:22:09.965Z,100517.41
2023-02-03T14:25:11.684Z,100495.69
2023-02-03T14:28:17.862Z,100502.91
2023-02-03T14:31:22.569Z,100491.44
2023-02-03T14:34:37.207Z,100484.66
2023-02-03T14:37:39.336Z,100465.88
2023-02-03T14:40:43.585Z,100478.72
2023-02-03T14:44:08.111Z,100478.16
2023-02-03T14:47:31.437Z,100463.63
2023-02-03T14:50:52.269Z,100464.56
2023-02-03T14:54:21.792Z,100447.88
2023-02-03T14:57:35.229Z,100439.19
2023-02-03T15:00:37.652Z,100434.19
2023-02-03T15:03:42.313Z,100427.47
2023-02-03T15:06:46.519Z,100423.03
2023-02-03T15:09:51.532Z,100418.19
2023-02-03T15:12:56.257Z,100429.00
2023-02-03T15:16:01.645Z,100414.03
2023-02-03T15:19:09.533Z,100414.94
2023-02-03T15:22:25.066Z,100407.00
2023-02-03T15:25:30.051Z,100400.19
2023-02-03T15:28:31.953Z,100395.41
2023-02-03T15:31:49.881Z,100395.56
2023-02-03T15:34:53.140Z,100384.16
2023-02-03T15:38:01.445Z,100379.87
2023-02-03T15:41:07.283Z,100377.94
2023-02-03T15:44:21.368Z,100372.44
2023-02-03T15:47:30.658Z,100373.47
2023-02-03T15:50:36.513Z,100366.94
2023-02-03T15:53:49.009Z,100355.50
2023-02-03T15:57:07.442Z,100351.69
2023-02-03T16:00:28.227Z,100342.81
2023-02-03T16:03:40.186Z,100334.31
2023-02-03T16:06:48.168Z,100333.44
2023-02-03T16:09:58.499Z,100327.59
2023-02-03T16:13:35.911Z,100315.16
2023-02-03T16:16:42.373Z,100305.19
2023-02-03T16:19:51.448Z,100304.56
2023-02-03T16:23:03.526Z,100292.91
2023-02-03T16:26:27.049Z,100285.09
2023-02-03T16:29:48.092Z,100270.69
2023-02-03T16:33:27.122Z,100263.25
2023-02-03T16:36:47.236Z,100259.59
2023-02-03T16:40:07.649Z,100239.81
2023-02-03T16:43:31.211Z,100242.59
2023-02-03T16:46:51.371Z,100228.84
2023-02-03T16:50:11.419Z,100224.78
2023-02-03T16:53:16.108Z,100220.16
2023-02-03T16:56:19.405Z,100206.50
2023-02-03T16:59:21.442Z,100190.47
2023-02-03T17:02:23.361Z,100194.13
2023-02-03T17:05:25.193Z,100190.84
2023-02-03T17:08:26.992Z,100174.56
2023-02-03T17:11:28.750Z,100167.09
2023-02-03T17:14:31.090Z,100166.31
2023-02-03T17:17:33.988Z,100157.41
2023-02-03T17:20:37.397Z,100153.66
2023-02-03T17:23:39.375Z,100141.34
2023-02-03T17:26:41.275Z,100137.22
2023-02-03T17:29:42.969Z,100132.25
2023-02-03T17:32:44.923Z,100139.44
2023-02-03T17:35:46.949Z,100120.75
2023-02-03T17:55:32.882Z,100101.53
2023-02-03T17:58:34.856Z,100095.00
2023-02-03T18:01:37.350Z,100077.78
2023-02-03T18:04:39.539Z,100064.63
2023-02-03T18:07:43.301Z,100072.53
2023-02-03T18:10:45.538Z,100058.03
2023-02-03T18:13:49.961Z,100051.94
2023-02-03T18:16:53.685Z,100037.22
2023-02-03T18:19:57.329Z,100046.63
2023-02-03T18:22:59.505Z,100029.38
2023-02-03T18:26:02.422Z,100019.38
2023-02-03T18:29:06.718Z,100016.00
2023-02-03T18:32:11.064Z,100008.53
2023-02-03T18:35:17.252Z,100007.13
2023-02-03T18:38:19.834Z,100017.75
2023-02-03T18:41:24.371Z,99999.47
2023-02-03T18:44:27.576Z,99987.66
2023-02-03T18:47:30.281Z,99994.41
2023-02-03T18:50:32.706Z,99976.47
2023-02-03T18:53:35.357Z,99967.47
2023-02-03T18:56:38.076Z,99964.66
2023-02-03T18:59:41.437Z,99962.78
2023-02-03T19:02:44.526Z,99960.38
2023-02-03T19:05:48.258Z,99950.72
2023-02-03T19:08:52.893Z,99957.03
2023-02-03T19:12:01.096Z,99951.59
2023-02-03T19:15:04.268Z,99951.69
2023-02-03T19:18:07.218Z,99940.50
2023-02-03T19:21:12.640Z,99927.09
2023-02-03T19:24:16.662Z,99925.09
2023-02-03T19:27:19.352Z,99911.31
2023-02-03T19:30:22.650Z,99924.72
2023-02-03T19:33:26.473Z,99908.44
2023-02-03T19:36:30.049Z,99896.00
2023-02-03T19:39:35.937Z,99901.34
2023-02-03T19:42:39.630Z,99896.44
2023-02-03T19:45:43.823Z,99873.50
2023-02-03T19:48:46.799Z,99864.25
2023-02-03T19:51:49.734Z,99856.91
2023-02-03T19:54:56.190Z,99858.22
2023-02-03T19:58:00.693Z,99856.44
2023-02-03T20:01:04.488Z,99853.44
2023-02-03T20:04:07.796Z,99847.44
2023-02-03T20:07:14.938Z,99850.41
2023-02-03T20:10:18.388Z,99848.16
2023-02-03T20:13:27.664Z,99837.19
2023-02-03T20:16:31.848Z,99846.06
2023-02-03T20:19:41.001Z,99853.88
2023-02-03T20:22:45.040Z,99846.19
2023-02-03T20:25:53.468Z,99858.75
2023-02-03T20:28:56.923Z,99875.09
2023-02-03T20:32:00.847Z,99885.50
2023-02-03T20:35:07.156Z,99888.78
2023-02-03T20:38:09.890Z,99889.03
2023-02-03T20:41:13.468Z,99891.34
2023-02-03T20:44:21.050Z,99888.19
2023-02-03T20:47:25.273Z,99899.06
2023-02-03T20:50:40.551Z,99912.66
2023-02-03T20:53:45.155Z,99910.44
2023-02-03T20:56:50.309Z,99918.81
2023-02-03T20:59:54.559Z,99929.62
2023-02-03T21:03:17.888Z,99922.91
2023-02-03T21:06:22.070Z,99929.62
2023-02-03T21:09:26.444Z,99940.31
2023-02-03T21:12:29.329Z,99936.56
2023-02-03T21:15:34.536Z,99928.94
2023-02-03T21:19:03.377Z,99925.84
2023-02-03T21:22:18.686Z,99922.84
2023-02-03T21:25:33.820Z,99923.91
2023-02-03T21:28:36.450Z,99926.19
2023-02-03T21:31:38.962Z,99945.09
2023-02-03T21:34:44.843Z,99953.09
2023-02-03T21:37:47.368Z,99960.72
2023-02-03T21:40:50.145Z,99957.41
2023-02-03T21:43:55.971Z,99953.16
2023-02-03T21:47:00.423Z,99957.16
2023-02-03T21:50:03.549Z,99948.03
2023-02-03T21:53:07.034Z,99954.50
2023-02-03T21:56:37.455Z,99955.37
2023-02-03T21:59:47.279Z,99958.22
2023-02-03T22:02:59.738Z,99961.25
2023-02-03T22:06:08.672Z,99959.00
2023-02-03T22:09:16.327Z,99951.84
2023-02-03T22:12:18.283Z,99959.12
2023-02-03T22:15:20.124Z,99971.53
2023-02-03T22:18:21.832Z,99974.72
2023-02-03T22:21:24.199Z,99963.16
2023-02-03T22:24:25.902Z,99968.56
2023-02-03T22:27:27.617Z,99966.44
2023-02-03T22:30:29.711Z,99964.22
2023-02-03T22:33:32.193Z,99966.94
2023-02-03T22:36:33.956Z,99968.66
2023-02-03T22:39:35.631Z,99962.69
2023-02-03T22:42:45.466Z,99953.22
2023-02-03T22:45:48.282Z,99952.38
2023-02-03T22:48:50.034Z,99958.00
2023-02-03T22:51:52.701Z,99956.94
2023-02-03T22:54:54.510Z,99964.94
2023-02-03T22:57:57.508Z,99972.47
2023-02-03T23:01:00.338Z,99983.00
2023-02-03T23:04:01.991Z,99977.06
2023-02-03T23:07:04.751Z,99971.84
2023-02-03T23:10:09.002Z,99974.91
2023-02-03T23:13:13.713Z,99965.13
2023-02-03T23:16:37.117Z,99977.38
2023-02-03T23:19:38.892Z,99975.63
2023-02-03T23:22:53.590Z,99991.00
2023-02-03T23:26:09.238Z,99989.34
2023-02-03T23:29:24.309Z,99985.66
2023-02-03T23:32:33.855Z,99985.87
2023-02-03T23:35:49.104Z,99978.56
2023-02-03T23:38:51.813Z,99979.66
2023-02-03T23:41:53.484Z,99968.19
2023-02-03T23:44:57.121Z,99962.84
2023-02-03T23:48:04.972Z,99960.06
2023-02-03T23:51:06.929Z,99959.75
2023-02-03T23:54:12.094Z,99947.25
2023-02-03T23:57:13.858Z,99956.94
